Time;durP1;ratioP1;P1;durP2;ratioP2;P2;SDS_P1;SDS_P2;PMS_P1;PMS_P2;Temp;Humidity;BMP_temperature;BMP_pressure;BME280_temperature;BME280_humidity;BME280_pressure;Samples;Min_cycle;Max_cycle;Signal;HPM_P1;HPM_P2
2022/03/01 00:02:23;;;;;;;34.92;15.10;;;;;;;2.08;62.35;102633.41;4990411;28;20065;-68
2022/03/01 00:04:48;;;;;;;40.95;16.73;;;;;;;2.09;62.38;102624.00;4982339;28;20045;-68
2022/03/01 00:07:14;;;;;;;43.22;16.92;;;;;;;2.05;62.39;102630.13;4973906;28;20519;-67
2022/03/01 00:09:40;;;;;;;41.30;17.48;;;;;;;2.04;62.73;102623.34;4987731;28;20046;-68
2022/03/01 00:12:06;;;;;;;38.00;17.45;;;;;;;2.12;62.13;102629.84;4984716;28;20057;-68
2022/03/01 00:14:32;;;;;;;35.33;16.80;;;;;;;2.16;61.70;102624.63;4970257;28;20038;-68
2022/03/01 00:16:57;;;;;;;44.22;18.00;;;;;;;2.19;62.06;102622.78;4987222;28;20477;-67
2022/03/01 00:19:23;;;;;;;43.65;18.70;;;;;;;2.10;62.07;102626.50;4984970;28;20113;-68
2022/03/01 00:21:49;;;;;;;43.17;17.88;;;;;;;1.95;62.90;102622.78;4985423;28;20027;-68
2022/03/01 00:24:14;;;;;;;30.20;15.52;;;;;;;1.82;63.16;102629.22;4994260;23;20336;-72
2022/03/01 00:26:40;;;;;;;34.95;16.27;;;;;;;1.75;64.03;102630.31;5002116;28;20046;-73
2022/03/01 00:29:05;;;;;;;40.80;17.65;;;;;;;1.82;63.67;102631.78;4997322;28;20026;-70
2022/03/01 00:31:31;;;;;;;41.40;17.63;;;;;;;1.72;63.58;102630.44;5006795;28;20034;-70
2022/03/01 00:33:56;;;;;;;38.45;16.02;;;;;;;1.60;64.02;102631.72;5010675;28;20513;-70
2022/03/01 00:36:22;;;;;;;36.28;16.45;;;;;;;1.53;64.93;102632.81;5024498;28;20033;-71
2022/03/01 00:38:47;;;;;;;43.03;18.83;;;;;;;1.43;65.28;102637.41;5005869;28;20034;-70
2022/03/01 00:41:13;;;;;;;39.67;17.63;;;;;;;1.32;65.78;102632.66;5006390;28;20030;-70
2022/03/01 00:43:38;;;;;;;39.67;17.00;;;;;;;1.28;66.58;102625.97;5007924;28;20026;-70
2022/03/01 00:46:04;;;;;;;36.20;15.95;;;;;;;1.23;67.01;102638.06;4991652;28;20038;-70
2022/03/01 00:48:29;;;;;;;35.83;16.63;;;;;;;1.19;67.55;102633.94;5000744;28;20152;-70
2022/03/01 00:50:55;;;;;;;38.35;17.45;;;;;;;1.16;67.93;102631.47;5005820;28;20691;-70
2022/03/01 00:53:20;;;;;;;33.63;15.52;;;;;;;1.14;67.71;102634.06;5005600;28;20034;-70
2022/03/01 00:55:46;;;;;;;39.33;16.98;;;;;;;1.12;67.72;102635.03;4999285;28;20389;-72
2022/03/01 00:58:11;;;;;;;40.70;16.30;;;;;;;1.09;67.73;102630.00;5002242;28;20034;-70
2022/03/01 01:00:37;;;;;;;34.63;15.48;;;;;;;1.06;67.95;102638.59;5001316;28;20058;-71
2022/03/01 01:03:03;;;;;;;32.67;15.77;;;;;;;1.04;68.53;102632.72;5009126;28;20057;-70
2022/03/01 01:05:28;;;;;;;38.05;16.60;;;;;;;1.00;68.47;102635.41;4999524;28;20038;-71
2022/03/01 01:07:54;;;;;;;35.35;17.00;;;;;;;0.93;69.01;102643.28;5001293;28;20018;-71
2022/03/01 01:10:20;;;;;;;33.53;15.95;;;;;;;0.89;69.34;102639.16;4982428;28;20137;-70
2022/03/01 01:12:46;;;;;;;34.88;16.80;;;;;;;0.87;69.50;102635.81;5009714;28;20026;-71
2022/03/01 01:15:14;;;;;;;38.58;17.70;;;;;;;0.84;69.69;102640.16;5010788;28;20036;-71
2022/03/01 01:17:40;;;;;;;40.45;17.85;;;;;;;0.80;69.80;102641.97;4999540;28;20230;-70
2022/03/01 01:20:07;;;;;;;38.10;17.10;;;;;;;0.76;69.74;102642.97;5005720;28;20030;-70
2022/03/01 01:22:39;;;;;;;35.80;17.70;;;;;;;0.72;69.92;102644.78;5000995;28;20163;-70
2022/03/01 01:25:07;;;;;;;44.38;16.10;;;;;;;0.69;69.78;102639.75;5003412;28;20125;-71
2022/03/01 01:27:33;;;;;;;37.30;16.92;;;;;;;0.63;70.14;102639.94;5001319;28;20077;-72
2022/03/01 01:29:59;;;;;;;38.22;16.63;;;;;;;0.58;70.25;102641.78;4999713;28;20112;-71
2022/03/01 01:32:24;;;;;;;35.05;16.23;;;;;;;0.54;70.06;102642.78;5007673;28;20049;-71
2022/03/01 01:34:50;;;;;;;39.45;16.92;;;;;;;0.53;69.63;102630.91;5001692;28;20464;-70
2022/03/01 01:37:15;;;;;;;42.83;18.23;;;;;;;0.56;68.92;102631.63;5005693;28;20029;-70
2022/03/01 01:39:41;;;;;;;38.08;16.95;;;;;;;0.43;69.24;102635.44;5023850;28;20030;-71
2022/03/01 01:42:06;;;;;;;37.72;17.05;;;;;;;0.46;69.25;102630.25;5004228;28;20049;-70
2022/03/01 01:44:32;;;;;;;38.80;16.98;;;;;;;0.82;67.86;102617.22;5007412;28;20037;-70
2022/03/01 01:46:58;;;;;;;33.50;15.25;;;;;;;0.91;67.13;102622.03;5003756;28;20044;-70
2022/03/01 01:49:24;;;;;;;36.60;16.50;;;;;;;0.77;67.46;102612.28;4988151;28;20445;-70
2022/03/01 01:51:50;;;;;;;38.63;17.52;;;;;;;0.63;68.03;102613.59;5003574;28;20058;-70
2022/03/01 01:54:15;;;;;;;43.08;18.00;;;;;;;0.50;68.50;102613.13;4998377;28;20041;-71
2022/03/01 01:56:41;;;;;;;35.08;16.10;;;;;;;0.44;69.22;102620.97;5000870;28;20109;-70
2022/03/01 01:59:06;;;;;;;40.35;16.50;;;;;;;0.37;69.76;102620.31;4997786;28;20359;-70
2022/03/01 02:01:32;;;;;;;37.03;16.60;;;;;;;0.32;70.17;102622.16;5008644;28;20456;-70
2022/03/01 02:04:01;;;;;;;35.65;16.67;;;;;;;0.29;70.49;102622.25;5007581;28;20113;-70
2022/03/01 02:06:27;;;;;;;38.47;17.48;;;;;;;0.34;70.52;102628.03;5006133;28;20645;-69
2022/03/01 02:08:53;;;;;;;37.58;15.77;;;;;;;0.48;69.21;102631.03;4998825;28;20025;-69
2022/03/01 02:11:18;;;;;;;38.78;16.65;;;;;;;0.54;69.46;102622.34;5004510;28;20439;-70
2022/03/01 02:13:44;;;;;;;36.58;16.42;;;;;;;0.41;69.53;102621.88;5000935;28;20041;-70
2022/03/01 02:16:10;;;;;;;34.25;16.02;;;;;;;0.32;70.33;102624.69;5003083;28;20060;-72
2022/03/01 02:18:36;;;;;;;36.40;16.33;;;;;;;0.27;70.33;102624.00;4987680;28;20244;-70
2022/03/01 02:21:01;;;;;;;38.05;16.70;;;;;;;0.20;71.12;102620.78;4986129;28;20724;-70
2022/03/01 02:23:27;;;;;;;34.60;15.63;;;;;;;0.15;71.59;102615.84;4990661;28;20072;-71
2022/03/01 02:25:53;;;;;;;31.50;15.13;;;;;;;0.14;71.53;102615.88;5004943;28;20045;-70
2022/03/01 02:28:19;;;;;;;35.65;17.67;;;;;;;0.13;71.94;102609.94;5000788;28;20077;-70
2022/03/01 02:30:45;;;;;;;34.75;16.65;;;;;;;0.08;71.95;102609.22;5004221;28;20076;-71
2022/03/01 02:33:10;;;;;;;35.47;16.27;;;;;;;0.04;72.24;102606.78;4997302;28;20037;-70
2022/03/01 02:35:36;;;;;;;39.08;17.55;;;;;;;0.01;72.33;102610.28;5001027;28;20038;-70
2022/03/01 02:38:03;;;;;;;38.88;16.35;;;;;;;-0.02;73.20;102608.66;4998310;28;20388;-69
2022/03/01 02:40:29;;;;;;;37.35;15.90;;;;;;;-0.05;73.12;102611.28;4998172;28;20069;-70
2022/03/01 02:42:55;;;;;;;31.33;15.57;;;;;;;-0.07;73.20;102607.94;5002628;28;20034;-70
2022/03/01 02:45:20;;;;;;;37.45;16.50;;;;;;;-0.08;73.70;102607.97;5002559;28;20080;-71
2022/03/01 02:47:46;;;;;;;31.88;15.35;;;;;;;-0.09;73.62;102601.22;4997210;28;20416;-70
2022/03/01 02:50:12;;;;;;;32.67;15.32;;;;;;;-0.10;73.78;102609.75;5002327;28;20107;-69
2022/03/01 02:52:38;;;;;;;33.15;15.77;;;;;;;-0.13;73.68;102615.78;4997738;28;20042;-70
2022/03/01 02:55:05;;;;;;;29.17;15.10;;;;;;;-0.13;73.98;102607.25;5000815;28;20057;-70
2022/03/01 02:57:30;;;;;;;34.28;15.95;;;;;;;-0.15;73.93;102602.22;4999382;28;20057;-71
2022/03/01 02:59:56;;;;;;;35.72;15.52;;;;;;;-0.14;73.94;102597.97;4997768;28;20505;-70
2022/03/01 03:02:21;;;;;;;35.00;15.27;;;;;;;-0.06;73.59;102596.88;4999422;28;20041;-70
2022/03/01 03:04:47;;;;;;;31.65;15.02;;;;;;;-0.11;73.49;102597.88;4999136;28;20037;-70
2022/03/01 03:07:13;;;;;;;32.75;14.95;;;;;;;-0.15;73.53;102596.28;5000003;28;20030;-70
2022/03/01 03:09:38;;;;;;;32.20;14.63;;;;;;;-0.04;73.90;102602.78;4994961;28;20919;-70
2022/03/01 03:12:05;;;;;;;32.03;15.18;;;;;;;0.22;73.34;102600.34;4999165;28;20030;-70
2022/03/01 03:14:31;;;;;;;34.70;15.43;;;;;;;0.34;73.03;102598.28;5014285;28;20026;-70
2022/03/01 03:16:57;;;;;;;33.03;15.13;;;;;;;0.51;72.28;102582.44;5000853;28;20104;-70
2022/03/01 03:19:23;;;;;;;29.75;13.65;;;;;;;0.64;71.72;102587.16;4999697;28;20046;-70
2022/03/01 03:21:49;;;;;;;34.35;15.10;;;;;;;0.60;71.37;102590.69;5002619;28;20033;-71
2022/03/01 03:24:15;;;;;;;31.92;13.60;;;;;;;0.70;71.20;102587.81;5000951;28;20555;-71
2022/03/01 03:26:41;;;;;;;26.83;12.45;;;;;;;0.80;70.97;102582.41;4996828;28;20113;-70
2022/03/01 03:29:10;;;;;;;31.45;13.98;;;;;;;0.71;71.61;102583.53;5002668;28;20041;-70
2022/03/01 03:31:38;;;;;;;35.05;13.57;;;;;;;0.63;71.05;102581.22;4999025;28;20025;-70
2022/03/01 03:34:04;;;;;;;27.38;13.80;;;;;;;0.57;71.44;102579.69;5000506;28;20058;-73
2022/03/01 03:36:30;;;;;;;27.52;12.98;;;;;;;0.74;70.82;102578.34;4999925;28;20050;-70
2022/03/01 03:38:55;;;;;;;25.92;12.48;;;;;;;0.80;70.75;102578.13;5000226;28;20026;-71
2022/03/01 03:41:21;;;;;;;28.85;13.52;;;;;;;0.82;70.54;102573.81;5002572;28;20535;-70
2022/03/01 03:43:46;;;;;;;26.90;13.00;;;;;;;0.78;70.86;102579.91;4994607;28;20030;-70
2022/03/01 03:46:12;;;;;;;26.80;13.52;;;;;;;0.73;70.71;102577.47;4999267;28;20497;-70
2022/03/01 03:48:37;;;;;;;28.45;12.98;;;;;;;0.70;70.83;102582.69;4996895;28;20105;-70
2022/03/01 03:51:03;;;;;;;33.72;13.90;;;;;;;0.72;70.55;102588.59;5001634;28;20424;-70
2022/03/01 03:53:28;;;;;;;27.63;12.43;;;;;;;0.76;70.07;102589.34;4996927;28;20042;-70
2022/03/01 03:55:54;;;;;;;28.60;12.20;;;;;;;0.78;70.51;102585.84;5003160;28;20053;-70
2022/03/01 03:58:20;;;;;;;22.15;11.63;;;;;;;0.88;69.54;102586.38;5006333;28;20029;-69
2022/03/01 04:00:46;;;;;;;24.77;11.25;;;;;;;0.88;69.34;102594.03;5000825;28;20026;-70
2022/03/01 04:03:12;;;;;;;25.23;11.48;;;;;;;1.04;68.64;102591.84;4997479;28;20048;-70
2022/03/01 04:05:37;;;;;;;25.55;11.80;;;;;;;1.00;69.03;102591.97;4999357;28;20033;-70
2022/03/01 04:08:03;;;;;;;26.35;12.13;;;;;;;0.92;68.77;102595.63;5004911;28;20125;-70
2022/03/01 04:10:29;;;;;;;30.45;12.60;;;;;;;0.91;68.79;102593.94;5000340;28;20399;-71
2022/03/01 04:12:54;;;;;;;26.45;12.20;;;;;;;0.91;68.86;102596.50;4993908;28;20054;-70
2022/03/01 04:15:20;;;;;;;25.00;10.93;;;;;;;1.00;69.29;102594.53;4995734;28;20381;-71
2022/03/01 04:17:46;;;;;;;24.00;11.23;;;;;;;0.99;68.44;102588.59;5001434;28;20392;-70
2022/03/01 04:20:11;;;;;;;26.20;11.88;;;;;;;1.06;68.18;102590.06;5001071;28;20053;-71
2022/03/01 04:22:37;;;;;;;24.83;10.82;;;;;;;1.17;67.79;102589.72;4999516;28;20121;-71
2022/03/01 04:25:05;;;;;;;23.05;10.63;;;;;;;1.14;68.00;102577.84;5002093;28;20061;-70
2022/03/01 04:27:31;;;;;;;21.38;10.55;;;;;;;1.03;67.94;102582.47;4999716;28;20042;-70
2022/03/01 04:29:56;;;;;;;24.20;10.63;;;;;;;1.02;68.21;102579.97;4997240;28;20393;-71
2022/03/01 04:32:22;;;;;;;23.27;11.52;;;;;;;1.07;68.09;102586.59;5000395;28;20033;-70
2022/03/01 04:34:47;;;;;;;22.08;11.52;;;;;;;0.96;68.32;102579.31;4996802;28;20279;-70
2022/03/01 04:37:13;;;;;;;21.95;10.25;;;;;;;0.98;68.46;102574.16;4999918;28;20084;-70
2022/03/01 04:39:38;;;;;;;22.40;10.25;;;;;;;1.13;67.22;102573.66;4999163;28;20034;-70
2022/03/01 04:42:05;;;;;;;28.05;11.27;;;;;;;1.19;67.36;102574.31;4983548;28;20041;-69
2022/03/01 04:44:32;;;;;;;25.23;10.98;;;;;;;1.22;67.28;102577.59;5000827;28;20038;-70
2022/03/01 04:46:57;;;;;;;18.15;9.32;;;;;;;1.20;67.33;102574.25;5005559;28;20451;-70
2022/03/01 04:49:23;;;;;;;22.33;10.40;;;;;;;1.09;67.74;102574.63;5001819;28;20034;-70
2022/03/01 04:51:48;;;;;;;22.10;10.55;;;;;;;1.23;68.04;102586.13;5007127;28;20060;-70
2022/03/01 04:54:13;;;;;;;24.90;11.07;;;;;;;1.18;67.50;102583.69;5008533;28;20096;-69
2022/03/01 04:56:39;;;;;;;24.83;10.27;;;;;;;1.25;67.28;102576.69;5004679;28;20029;-71
2022/03/01 04:59:04;;;;;;;24.23;11.27;;;;;;;1.27;67.01;102575.72;5007628;28;20500;-71
2022/03/01 05:01:30;;;;;;;23.10;11.25;;;;;;;1.21;67.45;102578.50;4988163;28;20504;-69
2022/03/01 05:03:56;;;;;;;20.98;10.10;;;;;;;1.32;67.31;102580.69;5008413;28;20045;-70
2022/03/01 05:06:21;;;;;;;20.92;10.25;;;;;;;1.28;67.18;102581.66;5007312;28;20045;-70
2022/03/01 05:08:46;;;;;;;24.33;10.57;;;;;;;1.21;67.64;102595.56;5002304;28;20081;-70
2022/03/01 05:11:12;;;;;;;24.38;10.50;;;;;;;1.22;67.80;102577.59;4992591;28;20039;-70
2022/03/01 05:13:37;;;;;;;24.52;10.35;;;;;;;1.22;67.62;102579.31;4997757;28;20049;-70
2022/03/01 05:16:03;;;;;;;21.15;10.25;;;;;;;1.20;67.91;102591.31;4999568;28;20022;-70
2022/03/01 05:18:29;;;;;;;22.13;10.98;;;;;;;1.17;67.61;102593.09;5005619;28;20542;-70
2022/03/01 05:20:54;;;;;;;19.50;9.10;;;;;;;1.21;67.76;102593.84;5005390;28;20764;-70
2022/03/01 05:23:20;;;;;;;25.10;10.98;;;;;;;1.14;67.90;102600.84;5006063;28;20476;-70
2022/03/01 05:25:45;;;;;;;21.77;10.20;;;;;;;1.07;68.14;102594.28;5005788;28;20026;-71
2022/03/01 05:28:11;;;;;;;20.95;10.50;;;;;;;1.11;68.20;102597.56;5004143;28;20109;-70
2022/03/01 05:30:36;;;;;;;26.48;10.68;;;;;;;1.09;68.06;102594.22;5003788;28;20030;-70
2022/03/01 05:33:02;;;;;;;29.02;11.45;;;;;;;1.21;68.04;102605.78;5002719;28;20502;-71
2022/03/01 05:35:30;;;;;;;23.00;10.82;;;;;;;1.22;68.34;102610.00;5003176;28;20029;-70
2022/03/01 05:37:57;;;;;;;25.13;11.05;;;;;;;1.23;67.98;102609.13;5007298;28;20025;-71
2022/03/01 05:40:25;;;;;;;28.08;10.77;;;;;;;1.16;68.27;102601.63;5005662;28;20034;-70
2022/03/01 05:42:51;;;;;;;23.67;11.35;;;;;;;1.12;68.47;102597.50;5006331;28;20049;-69
2022/03/01 05:45:17;;;;;;;23.63;11.18;;;;;;;1.12;68.44;102597.50;5008441;28;20499;-70
2022/03/01 05:47:43;;;;;;;22.05;11.05;;;;;;;1.06;68.35;102594.34;5002096;28;20026;-69
2022/03/01 05:50:11;;;;;;;20.30;10.30;;;;;;;1.07;69.17;102593.44;5005442;28;20033;-70
2022/03/01 05:52:37;;;;;;;23.25;10.57;;;;;;;1.05;68.80;102600.31;5017851;28;20046;-72
2022/03/01 05:55:04;;;;;;;25.17;11.43;;;;;;;1.02;68.90;102592.75;5006199;28;20045;-70
2022/03/01 05:57:30;;;;;;;23.50;10.40;;;;;;;1.20;68.19;102594.69;5007198;28;20408;-71
2022/03/01 05:59:56;;;;;;;22.65;10.65;;;;;;;1.07;68.29;102591.72;5005883;28;20026;-70
2022/03/01 06:02:22;;;;;;;24.02;10.82;;;;;;;1.06;68.26;102591.78;5003232;28;20432;-71
2022/03/01 06:04:48;;;;;;;23.67;11.20;;;;;;;1.10;68.55;102594.19;5002121;28;20148;-71
2022/03/01 06:07:13;;;;;;;26.10;11.38;;;;;;;1.15;67.81;102588.94;4987590;28;20092;-70
2022/03/01 06:09:39;;;;;;;28.00;11.15;;;;;;;1.11;68.13;102589.91;4993527;28;20049;-70
2022/03/01 06:12:04;;;;;;;25.35;11.13;;;;;;;1.19;67.78;102595.59;4999156;28;20038;-70
2022/03/01 06:14:30;;;;;;;24.42;11.55;;;;;;;1.16;68.05;102593.97;5003049;28;20116;-71
2022/03/01 06:16:56;;;;;;;23.80;10.95;;;;;;;1.10;68.12;102601.03;5000301;28;20030;-71
2022/03/01 06:19:21;;;;;;;26.13;11.27;;;;;;;1.03;68.11;102597.00;5007771;28;20041;-71
2022/03/01 06:21:47;;;;;;;20.70;10.63;;;;;;;1.07;67.84;102588.34;4990485;28;20034;-70
2022/03/01 06:24:12;;;;;;;21.63;10.80;;;;;;;1.04;67.82;102589.28;5007527;28;20672;-72
2022/03/01 06:26:38;;;;;;;20.23;10.35;;;;;;;1.16;67.35;102596.53;5041263;23;20129;-76
2022/03/01 06:29:05;;;;;;;24.00;10.88;;;;;;;1.08;68.32;102590.84;4986036;28;20030;-77
2022/03/01 06:31:30;;;;;;;23.55;11.23;;;;;;;1.22;67.42;102590.38;4999875;28;20507;-76
2022/03/01 06:33:56;;;;;;;23.17;11.25;;;;;;;1.15;68.01;102599.16;5017034;28;20076;-76
2022/03/01 06:36:26;;;;;;;25.88;11.57;;;;;;;1.17;67.77;102592.28;4985631;28;20772;-76
2022/03/01 06:38:52;;;;;;;24.27;10.65;;;;;;;1.29;67.17;102596.94;4985253;28;20026;-76
2022/03/01 06:41:17;;;;;;;28.58;11.95;;;;;;;1.26;67.09;102596.22;5002347;28;20045;-76
2022/03/01 06:43:43;;;;;;;26.33;12.35;;;;;;;1.33;67.05;102595.97;4985558;28;20033;-76
2022/03/01 06:46:09;;;;;;;21.55;10.70;;;;;;;1.25;67.48;102600.50;4969145;28;20038;-76
2022/03/01 06:48:34;;;;;;;23.40;11.45;;;;;;;1.27;67.27;102606.41;4999360;28;20033;-76
2022/03/01 06:51:01;;;;;;;23.77;11.20;;;;;;;1.35;66.99;102591.63;4984220;28;20080;-79
2022/03/01 06:53:26;;;;;;;23.15;11.00;;;;;;;1.40;66.32;102594.03;4986867;28;20373;-76
2022/03/01 06:55:52;;;;;;;24.60;11.40;;;;;;;1.36;66.23;102592.47;4984073;28;20046;-76
2022/03/01 06:58:17;;;;;;;21.02;10.07;;;;;;;1.34;66.66;102589.97;4988221;28;20034;-76
2022/03/01 07:00:44;;;;;;;22.70;9.85;;;;;;;1.28;66.68;102597.00;4998465;28;20034;-77
2022/03/01 07:03:10;;;;;;;25.88;11.68;;;;;;;1.38;66.52;102592.44;5003137;28;20065;-76
2022/03/01 07:05:36;;;;;;;27.25;11.68;;;;;;;1.48;65.72;102599.72;5001530;28;20095;-76
2022/03/01 07:08:01;;;;;;;23.15;11.20;;;;;;;1.47;65.85;102604.88;4971926;28;20032;-75
2022/03/01 07:10:27;;;;;;;22.85;11.18;;;;;;;1.47;65.71;102602.31;4998455;28;20408;-76
2022/03/01 07:12:52;;;;;;;19.50;10.05;;;;;;;1.44;65.87;102605.00;4968838;28;20044;-76
2022/03/01 07:15:18;;;;;;;23.85;11.60;;;;;;;1.49;65.33;102610.78;4997114;28;20046;-76
2022/03/01 07:17:45;;;;;;;27.15;10.73;;;;;;;1.41;65.53;102607.66;5001676;28;20038;-76
2022/03/01 07:20:11;;;;;;;23.33;10.90;;;;;;;1.50;65.25;102609.91;5000489;28;20065;-76
2022/03/01 07:22:37;;;;;;;23.05;10.68;;;;;;;1.52;65.40;102608.94;4982415;28;20507;-76
2022/03/01 07:25:03;;;;;;;25.83;10.57;;;;;;;1.52;65.33;102614.06;4984572;28;20038;-76
2022/03/01 07:27:28;;;;;;;24.92;12.13;;;;;;;1.60;64.77;102610.41;5004296;28;20034;-77
2022/03/01 07:29:54;;;;;;;26.85;11.88;;;;;;;1.59;65.20;102608.75;4999890;28;20033;-78
2022/03/01 07:32:20;;;;;;;25.50;11.25;;;;;;;1.61;65.44;102610.34;4983090;28;20053;-77
2022/03/01 07:34:45;;;;;;;22.92;11.20;;;;;;;1.62;65.18;102613.75;4998209;28;20026;-78
2022/03/01 07:37:10;;;;;;;27.48;11.05;;;;;;;1.61;64.79;102609.53;5003738;28;20042;-76
2022/03/01 07:39:36;;;;;;;30.75;10.75;;;;;;;1.70;64.85;102606.66;4998781;28;20327;-76
2022/03/01 07:42:03;;;;;;;24.33;10.95;;;;;;;1.80;64.19;102609.72;5001586;28;20029;-76
2022/03/01 07:44:28;;;;;;;24.90;11.30;;;;;;;1.80;64.21;102609.72;4983640;28;20034;-76
2022/03/01 07:46:54;;;;;;;26.92;11.40;;;;;;;1.81;64.18;102606.25;4982321;28;20038;-75
2022/03/01 07:49:19;;;;;;;24.98;10.77;;;;;;;1.80;64.34;102604.59;5005113;28;20037;-76
2022/03/01 07:51:45;;;;;;;25.48;10.93;;;;;;;1.87;63.73;102616.28;5001703;28;20040;-76
2022/03/01 07:54:10;;;;;;;25.95;11.80;;;;;;;2.05;63.40;102622.44;4985113;28;20065;-76
2022/03/01 07:56:36;;;;;;;29.50;11.65;;;;;;;2.24;62.99;102623.47;5000046;28;20500;-77
2022/03/01 07:59:01;;;;;;;26.38;11.55;;;;;;;2.57;61.87;102617.94;5002890;28;20027;-76
2022/03/01 08:01:27;;;;;;;22.42;9.90;;;;;;;3.03;60.68;102622.94;4986592;28;20026;-77
2022/03/01 08:03:53;;;;;;;19.90;10.82;;;;;;;3.39;59.14;102612.91;4966056;28;20509;-77
2022/03/01 08:06:18;;;;;;;24.92;10.63;;;;;;;3.34;58.40;102619.13;5000322;28;20058;-78
2022/03/01 08:08:44;;;;;;;27.10;9.95;;;;;;;3.27;58.60;102621.13;4983658;28;20038;-76
2022/03/01 08:11:10;;;;;;;21.05;10.27;;;;;;;3.39;58.52;102610.34;5002039;28;20038;-76
2022/03/01 08:13:36;;;;;;;26.80;11.68;;;;;;;3.49;57.97;102608.22;4986011;28;20048;-77
2022/03/01 08:16:03;;;;;;;26.35;11.27;;;;;;;3.72;57.97;102617.50;4998722;28;20058;-76
2022/03/01 08:18:28;;;;;;;22.70;11.27;;;;;;;4.09;57.47;102615.88;4985705;28;20033;-77
2022/03/01 08:20:54;;;;;;;22.40;10.10;;;;;;;4.26;55.72;102609.97;4985734;28;20716;-78
2022/03/01 08:23:20;;;;;;;25.27;11.00;;;;;;;4.14;56.46;102618.22;5005621;28;20038;-78
2022/03/01 08:25:45;;;;;;;21.27;10.70;;;;;;;3.95;56.70;102618.22;5005353;28;20034;-76
2022/03/01 08:28:13;;;;;;;26.17;9.95;;;;;;;3.90;56.05;102623.56;4988560;28;20381;-78
2022/03/01 08:30:39;;;;;;;24.52;11.63;;;;;;;3.91;56.91;102632.91;5003711;28;20281;-77
2022/03/01 08:33:05;;;;;;;23.27;10.35;;;;;;;3.76;56.22;102626.72;5004621;28;20029;-77
2022/03/01 08:35:32;;;;;;;24.08;10.55;;;;;;;3.76;57.13;102626.72;5006406;28;20034;-79
2022/03/01 08:38:03;;;;;;;25.20;11.68;;;;;;;3.64;56.88;102628.09;5004242;28;20072;-77
2022/03/01 08:40:31;;;;;;;25.88;11.30;;;;;;;3.84;57.17;102622.09;4988866;28;20034;-77
2022/03/01 08:42:56;;;;;;;23.67;11.07;;;;;;;3.95;56.37;102629.28;5004955;28;20049;-77
2022/03/01 08:45:22;;;;;;;28.10;11.23;;;;;;;3.85;56.23;102628.06;4986900;28;20038;-78
2022/03/01 08:47:47;;;;;;;26.75;11.05;;;;;;;3.75;56.80;102639.59;5006570;28;20030;-77
2022/03/01 08:50:13;;;;;;;24.05;10.73;;;;;;;3.81;56.84;102647.06;4973971;28;20524;-77
2022/03/01 08:52:39;;;;;;;28.02;11.82;;;;;;;3.90;56.57;102642.34;5005113;28;20030;-76
2022/03/01 08:55:07;;;;;;;30.00;12.05;;;;;;;3.84;55.96;102655.47;5004595;28;20056;-76
2022/03/01 08:57:32;;;;;;;35.45;13.52;;;;;;;3.97;56.77;102642.91;4989167;28;20088;-77
2022/03/01 08:59:58;;;;;;;32.45;11.77;;;;;;;4.00;57.34;102617.09;5001890;28;20428;-77
2022/03/01 09:02:23;;;;;;;49.80;17.00;;;;;;;3.88;56.32;102615.91;5006450;28;20514;-78
2022/03/01 09:04:49;;;;;;;44.25;17.63;;;;;;;3.88;57.02;102615.06;4987932;28;20026;-78
2022/03/01 09:07:14;;;;;;;54.55;19.02;;;;;;;3.80;56.45;102617.97;4986773;28;20415;-76
2022/03/01 09:09:40;;;;;;;46.15;17.02;;;;;;;3.77;57.02;102613.00;4999913;28;20045;-77
2022/03/01 09:12:06;;;;;;;35.97;14.30;;;;;;;3.84;57.74;102627.22;5010458;28;20039;-77
2022/03/01 09:14:31;;;;;;;29.60;12.70;;;;;;;3.91;57.55;102617.50;4989559;28;20037;-79
2022/03/01 09:16:57;;;;;;;31.00;11.20;;;;;;;3.85;57.34;102600.66;5007774;28;20484;-77
2022/03/01 09:19:22;;;;;;;38.30;14.50;;;;;;;3.92;57.31;102605.50;5007267;28;20034;-77
2022/03/01 09:21:48;;;;;;;37.83;14.90;;;;;;;3.93;57.82;102614.88;5005695;28;20037;-77
2022/03/01 09:24:13;;;;;;;27.88;12.80;;;;;;;4.03;56.86;102613.56;5005780;28;20071;-77
2022/03/01 09:26:39;;;;;;;22.25;11.38;;;;;;;4.18;56.27;102617.16;4988759;28;20034;-78
2022/03/01 09:29:05;;;;;;;27.27;11.55;;;;;;;4.44;56.03;102629.63;4992754;28;20698;-78
2022/03/01 09:31:30;;;;;;;26.48;11.15;;;;;;;4.52;54.30;102634.44;4995073;28;20038;-77
2022/03/01 09:33:56;;;;;;;29.08;12.02;;;;;;;4.56;54.40;102632.53;4987914;28;20044;-77
2022/03/01 09:36:22;;;;;;;28.45;11.23;;;;;;;4.74;54.72;102631.66;4968274;28;20034;-78
2022/03/01 09:38:48;;;;;;;25.90;11.10;;;;;;;4.78;53.52;102622.91;5003328;28;20469;-77
2022/03/01 09:41:14;;;;;;;30.67;10.85;;;;;;;4.95;53.84;102621.25;4971550;28;20045;-79
2022/03/01 09:43:41;;;;;;;26.15;10.77;;;;;;;5.17;53.73;102619.28;4982328;28;20069;-78
2022/03/01 09:46:08;;;;;;;28.05;12.38;;;;;;;5.22;54.02;102619.09;4985974;28;20033;-78
2022/03/01 09:48:35;;;;;;;23.00;10.48;;;;;;;5.03;53.41;102616.59;5004430;28;20108;-77
2022/03/01 09:51:02;;;;;;;22.33;10.48;;;;;;;4.95;53.32;102618.69;4987085;28;20149;-79
2022/03/01 09:53:28;;;;;;;28.35;11.98;;;;;;;4.87;53.74;102625.03;4985986;28;20416;-76
2022/03/01 09:55:54;;;;;;;23.38;11.50;;;;;;;4.86;53.85;102628.53;4985050;28;20202;-78
2022/03/01 09:58:20;;;;;;;26.10;11.48;;;;;;;4.95;54.10;102644.41;5004367;28;20029;-79
2022/03/01 10:00:45;;;;;;;22.85;11.07;;;;;;;4.99;53.85;102640.78;5002633;28;20427;-79
2022/03/01 10:03:19;;;;;;;32.00;11.07;;;;;;;4.98;54.27;102644.25;5006174;28;20492;-78
2022/03/01 10:05:45;;;;;;;24.00;11.13;;;;;;;5.01;54.10;102637.25;4985967;28;20405;-78
2022/03/01 10:08:14;;;;;;;27.40;11.10;;;;;;;5.10;53.36;102628.22;4987378;28;20034;-78
2022/03/01 10:10:43;;;;;;;22.67;10.80;;;;;;;5.21;53.60;102632.84;4986582;28;20037;-78
2022/03/01 10:13:11;;;;;;;27.50;10.57;;;;;;;5.33;53.21;102631.38;4981117;28;20504;-78
2022/03/01 10:15:37;;;;;;;28.65;13.98;;;;;;;5.47;52.69;102639.25;5001353;28;20041;-79
2022/03/01 10:18:13;;;;;;;25.83;12.77;;;;;;;5.46;53.15;102635.84;5004242;28;20026;-80
2022/03/01 10:20:41;;;;;;;23.98;12.25;;;;;;;5.66;52.88;102634.81;4985723;28;20420;-79
2022/03/01 10:23:08;;;;;;;27.33;11.43;;;;;;;5.72;52.73;102633.66;4986138;28;20037;-79
2022/03/01 10:25:35;;;;;;;34.92;12.05;;;;;;;5.85;52.59;102633.88;4999243;28;20037;-79
2022/03/01 10:28:03;;;;;;;27.80;12.43;;;;;;;5.96;52.33;102635.91;5000193;28;20489;-78
2022/03/01 10:30:34;;;;;;;27.27;11.85;;;;;;;5.98;52.65;102642.66;4987976;28;20167;-80
2022/03/01 10:33:14;;;;;;;27.73;12.27;;;;;;;6.09;51.89;102647.22;4983531;28;20030;-78
2022/03/01 10:35:42;;;;;;;26.05;11.32;;;;;;;6.22;51.51;102635.34;4986755;28;20052;-78
2022/03/01 10:38:10;;;;;;;26.77;11.48;;;;;;;6.14;52.18;102634.94;4988220;28;20029;-78
2022/03/01 10:40:38;;;;;;;30.38;12.55;;;;;;;6.21;51.46;102630.28;4987159;28;20033;-78
2022/03/01 10:43:12;;;;;;;27.08;11.70;;;;;;;6.15;50.90;102625.47;4985605;28;20034;-78
2022/03/01 10:45:49;;;;;;;24.63;11.52;;;;;;;6.25;51.73;102636.94;4972607;28;20566;-79
2022/03/01 10:48:28;;;;;;;28.00;11.52;;;;;;;6.36;51.00;102639.75;5005261;28;20610;-78
2022/03/01 10:50:59;;;;;;;21.95;11.60;;;;;;;6.43;51.63;102642.84;4988691;28;20053;-79
2022/03/01 10:53:32;;;;;;;21.85;10.38;;;;;;;6.40;51.21;102630.97;5009512;28;20503;-77
2022/03/01 10:56:07;;;;;;;24.60;11.55;;;;;;;6.41;51.19;102640.34;4983288;28;20432;-78
2022/03/01 10:58:33;;;;;;;23.38;10.38;;;;;;;6.46;51.85;102632.38;4987887;28;20034;-78
2022/03/01 11:00:59;;;;;;;20.80;9.88;;;;;;;6.63;51.45;102634.03;5002545;28;20400;-78
2022/03/01 11:03:24;;;;;;;23.98;12.25;;;;;;;6.79;51.22;102632.22;4971781;28;20073;-78
2022/03/01 11:05:54;;;;;;;26.95;11.32;;;;;;;6.86;51.10;102631.91;4984411;28;21410;-80
2022/03/01 11:08:22;;;;;;;21.35;9.77;;;;;;;6.95;50.40;102627.03;4972770;28;20124;-78
2022/03/01 11:10:48;;;;;;;24.40;10.65;;;;;;;6.93;49.70;102628.03;4974834;28;20033;-77
2022/03/01 11:13:19;;;;;;;24.63;11.25;;;;;;;6.86;49.64;102624.16;4970772;28;20037;-79